Time;durP1;ratioP1;P1;durP2;ratioP2;P2;SDS_P1;SDS_P2;PMS_P1;PMS_P2;Temp;Humidity;BMP_temperature;BMP_pressure;BME280_temperature;BME280_humidity;BME280_pressure;Samples;Min_cycle;Max_cycle;Signal;HPM_P1;HPM_P2
2021/12/25 00:00:54;;;;;;;19.83;12.90;;;;;;;;;;5050036;28;44935;-84
2021/12/25 00:03:20;;;;;;;26.90;15.30;;;;;;;;;;5048543;28;44708;-84
2021/12/25 00:05:52;;;;;;;21.40;14.32;;;;;;;;;;5049622;28;44933;-84
2021/12/25 00:08:19;;;;;;;18.25;10.98;;;;;;;;;;5049311;28;43997;-84
2021/12/25 00:10:46;;;;;;;15.43;11.60;;;;;;;;;;5048751;28;42851;-84
2021/12/25 00:13:13;;;;;;;20.23;11.35;;;;;;;;;;5048050;28;45907;-84
2021/12/25 00:15:41;;;;;;;18.30;13.13;;;;;;;;;;5049670;28;44970;-84
2021/12/25 00:18:08;;;;;;;12.35;9.77;;;;;;;;;;5048202;28;42132;-84
2021/12/25 00:20:35;;;;;;;15.32;11.48;;;;;;;;;;5050694;28;44939;-85
2021/12/25 00:23:05;;;;;;;17.77;13.20;;;;;;;;;;5041407;28;42740;-84
2021/12/25 00:25:35;;;;;;;21.15;13.93;;;;;;;;;;5032296;28;43934;-85
2021/12/25 00:36:15;;;;;;;17.10;12.13;;;;;;;;;;5032493;28;42705;-84
2021/12/25 00:38:42;;;;;;;17.52;11.85;;;;;;;;;;5031518;28;44041;-84
2021/12/25 00:41:09;;;;;;;15.57;12.15;;;;;;;;;;5032350;28;43888;-84
2021/12/25 00:43:37;;;;;;;16.48;12.68;;;;;;;;;;5045219;28;42930;-85
2021/12/25 00:46:03;;;;;;;14.70;11.70;;;;;;;;;;5051451;28;44773;-85
2021/12/25 00:48:30;;;;;;;16.67;12.57;;;;;;;;;;5052079;28;44229;-84
2021/12/25 00:50:57;;;;;;;16.23;14.25;;;;;;;;;;5052668;28;43697;-85
2021/12/25 00:53:24;;;;;;;17.20;12.88;;;;;;;;;;5051496;28;43134;-85
2021/12/25 00:55:51;;;;;;;16.27;12.95;;;;;;;;;;5052321;28;42893;-84
2021/12/25 00:58:17;;;;;;;13.20;11.70;;;;;;;;;;5052073;28;44838;-84
2021/12/25 01:00:44;;;;;;;14.15;11.02;;;;;;;;;;5051403;28;42937;-84
2021/12/25 01:03:11;;;;;;;13.75;12.23;;;;;;;;;;5051407;28;42906;-84
2021/12/25 01:05:38;;;;;;;15.63;12.00;;;;;;;;;;5051623;28;44952;-84
2021/12/25 01:08:05;;;;;;;13.95;11.30;;;;;;;;;;5050662;28;44020;-85
2021/12/25 01:10:33;;;;;;;12.65;10.15;;;;;;;;;;5052276;28;43691;-85
2021/12/25 01:13:08;;;;;;;;;;;;;;;;;;5052081;28;45059;-84
2021/12/25 01:16:51;;;;;;;11.80;9.02;;;;;;;;;;5052184;28;44007;-84
2021/12/25 01:21:15;;;;;;;12.23;9.23;;;;;;;;;;5051523;28;45056;-84
2021/12/25 01:29:40;;;;;;;12.05;10.00;;;;;;;;;;5030449;28;44979;-84
2021/12/25 01:48:47;;;;;;;13.82;11.27;;;;;;;;;;5013520;28;44645;-84
2021/12/25 01:51:13;;;;;;;13.45;10.35;;;;;;;;;;5051316;28;44915;-84
2021/12/25 01:53:40;;;;;;;16.40;11.90;;;;;;;;;;5051375;28;44733;-84
2021/12/25 01:56:07;;;;;;;15.27;12.02;;;;;;;;;;5049534;28;43217;-84
2021/12/25 01:58:34;;;;;;;14.32;11.90;;;;;;;;;;5051549;28;42879;-84
2021/12/25 02:01:03;;;;;;;17.55;12.43;;;;;;;;;;5051519;28;42740;-84
2021/12/25 02:03:30;;;;;;;;;;;;;;;;;;5051838;28;43900;-84
2021/12/25 02:05:57;;;;;;;15.52;11.73;;;;;;;;;;5051282;28;44063;-84
2021/12/25 02:08:24;;;;;;;15.70;12.10;;;;;;;;;;5051009;28;44850;-84
2021/12/25 02:10:51;;;;;;;18.90;12.73;;;;;;;;;;5050285;28;45034;-84
2021/12/25 02:13:19;;;;;;;15.63;12.02;;;;;;;;;;5049091;28;42913;-84
2021/12/25 02:15:49;;;;;;;18.75;13.30;;;;;;;;;;5051084;28;42981;-84
2021/12/25 02:18:42;;;;;;;19.10;13.98;;;;;;;;;;5049672;28;43958;-84
2021/12/25 02:21:17;;;;;;;23.38;15.68;;;;;;;;;;5049952;28;43721;-85
2021/12/25 02:23:43;;;;;;;19.05;13.93;;;;;;;;;;5036464;28;44936;-84
2021/12/25 02:26:10;;;;;;;22.42;14.98;;;;;;;;;;5030870;28;45168;-84
2021/12/25 02:28:37;;;;;;;23.67;15.90;;;;;;;;;;5030934;28;42776;-84
2021/12/25 02:31:05;;;;;;;23.63;15.70;;;;;;;;;;5030243;28;45496;-84
2021/12/25 02:33:32;;;;;;;23.85;14.90;;;;;;;;;;5030908;28;44926;-84
2021/12/25 02:35:59;;;;;;;26.65;16.65;;;;;;;;;;5031518;28;42792;-84
2021/12/25 02:38:26;;;;;;;19.73;14.38;;;;;;;;;;5036499;28;44888;-85
2021/12/25 02:40:53;;;;;;;22.48;14.77;;;;;;;;;;5048044;28;43689;-85
2021/12/25 02:43:20;;;;;;;24.60;15.90;;;;;;;;;;5047139;28;43927;-84
2021/12/25 02:45:47;;;;;;;23.63;14.55;;;;;;;;;;5049041;28;44957;-84
2021/12/25 02:48:17;;;;;;;21.85;14.63;;;;;;;;;;5050517;28;45796;-84
2021/12/25 02:50:44;;;;;;;24.52;16.17;;;;;;;;;;5051114;28;44973;-84
2021/12/25 02:53:11;;;;;;;22.10;15.50;;;;;;;;;;5049129;28;45224;-84
2021/12/25 02:55:39;;;;;;;26.00;16.52;;;;;;;;;;5049994;28;43674;-84
2021/12/25 02:58:05;;;;;;;21.55;13.77;;;;;;;;;;5050218;28;43052;-84
2021/12/25 03:00:34;;;;;;;20.67;14.07;;;;;;;;;;5050274;28;44367;-85
2021/12/25 03:03:03;;;;;;;18.38;13.98;;;;;;;;;;5049923;28;43923;-84
2021/12/25 03:05:30;;;;;;;26.15;15.30;;;;;;;;;;5049731;28;42945;-84
2021/12/25 03:07:57;;;;;;;25.35;15.55;;;;;;;;;;5049869;28;44730;-84
2021/12/25 03:10:23;;;;;;;26.90;16.38;;;;;;;;;;5049199;28;44858;-84
2021/12/25 03:13:05;;;;;;;30.88;17.63;;;;;;;;;;5048568;28;44554;-84
2021/12/25 03:15:45;;;;;;;27.10;17.10;;;;;;;;;;5050420;28;42979;-84
2021/12/25 03:18:26;;;;;;;30.95;17.33;;;;;;;;;;5049775;28;44978;-84
2021/12/25 03:20:55;;;;;;;24.77;15.73;;;;;;;;;;5049618;28;43741;-84
2021/12/25 03:23:23;;;;;;;26.23;16.77;;;;;;;;;;5038984;28;43643;-85
2021/12/25 03:25:51;;;;;;;29.63;16.50;;;;;;;;;;5030120;28;44052;-84
2021/12/25 03:28:18;;;;;;;28.70;15.98;;;;;;;;;;5028860;28;42689;-85
2021/12/25 03:30:45;;;;;;;27.08;16.63;;;;;;;;;;5029984;28;44202;-84
2021/12/25 03:33:13;;;;;;;26.95;16.83;;;;;;;;;;5029219;28;45240;-84
2021/12/25 03:35:40;;;;;;;25.92;15.77;;;;;;;;;;5028686;28;44509;-84
2021/12/25 03:38:07;;;;;;;23.58;15.55;;;;;;;;;;5029304;28;42975;-84
2021/12/25 03:40:34;;;;;;;20.90;14.10;;;;;;;;;;5029942;28;43908;-84
2021/12/25 03:43:01;;;;;;;23.02;15.07;;;;;;;;;;5036804;28;45371;-84
2021/12/25 03:45:30;;;;;;;27.05;15.30;;;;;;;;;;5050018;28;42862;-84
2021/12/25 03:48:40;;;;;;;21.42;14.32;;;;;;;;;;5049081;28;44824;-84
2021/12/25 03:59:05;;;;;;;22.55;11.77;;;;;;;;;;5051949;28;43945;-84
2021/12/25 04:01:45;;;;;;;19.77;12.02;;;;;;;;;;5051413;28;44355;-84
2021/12/25 04:04:25;;;;;;;20.50;10.63;;;;;;;;;;5052405;28;43631;-84
2021/12/25 04:09:28;;;;;;;16.48;10.68;;;;;;;;;;5052761;28;43421;-84
2021/12/25 04:11:59;;;;;;;15.98;10.52;;;;;;;;;;5052114;28;45010;-83
2021/12/25 04:14:26;;;;;;;18.35;10.55;;;;;;;;;;5052994;28;45067;-84
2021/12/25 04:16:53;;;;;;;17.42;11.73;;;;;;;;;;5051886;28;43720;-84
2021/12/25 04:19:20;;;;;;;18.02;11.07;;;;;;;;;;5053145;28;43911;-84
2021/12/25 04:21:57;;;;;;;19.23;10.75;;;;;;;;;;5052148;28;44878;-84
2021/12/25 04:24:26;;;;;;;17.77;10.20;;;;;;;;;;5033332;28;44809;-84
2021/12/25 04:26:52;;;;;;;;;;;;;;;;;;5033673;28;45942;-84
2021/12/25 04:48:56;;;;;;;10.05;7.03;;;;;;;;;;5051923;28;43284;-84
2021/12/25 05:01:48;;;;;;;10.02;5.82;;;;;;;;;;5051959;28;43469;-83
2021/12/25 05:04:24;;;;;;;11.27;6.63;;;;;;;;;;5051902;28;44460;-84
2021/12/25 05:06:51;;;;;;;9.63;5.65;;;;;;;;;;5050923;28;42573;-85
2021/12/25 05:09:18;;;;;;;11.73;5.22;;;;;;;;;;5051983;28;45055;-84
2021/12/25 05:11:45;;;;;;;8.27;4.30;;;;;;;;;;5051005;28;43852;-84
2021/12/25 05:14:11;;;;;;;6.75;4.88;;;;;;;;;;5050710;28;44694;-84
2021/12/25 05:16:39;;;;;;;7.80;4.72;;;;;;;;;;5050997;28;45152;-83
2021/12/25 05:19:06;;;;;;;8.77;4.63;;;;;;;;;;5050444;28;43589;-84
2021/12/25 05:21:32;;;;;;;7.50;3.90;;;;;;;;;;5051263;28;43193;-84
2021/12/25 05:24:00;;;;;;;10.95;4.40;;;;;;;;;;5034041;28;44805;-83
2021/12/25 05:26:26;;;;;;;8.85;5.00;;;;;;;;;;5028786;28;45051;-84
2021/12/25 05:29:00;;;;;;;7.22;4.00;;;;;;;;;;5030343;28;44960;-84
2021/12/25 05:31:28;;;;;;;5.38;3.17;;;;;;;;;;5029315;28;43473;-84
2021/12/25 05:33:55;;;;;;;3.22;2.15;;;;;;;;;;5029286;28;42416;-83
2021/12/25 05:36:24;;;;;;;3.78;2.13;;;;;;;;;;5029288;28;44939;-84
2021/12/25 05:38:50;;;;;;;3.08;1.77;;;;;;;;;;5029853;28;43395;-84
2021/12/25 05:41:18;;;;;;;4.57;1.52;;;;;;;;;;5029129;28;42955;-83
2021/12/25 05:43:44;;;;;;;3.60;2.10;;;;;;;;;;5043504;28;42813;-84
2021/12/25 05:46:11;;;;;;;1.63;1.48;;;;;;;;;;5051503;28;44484;-84
2021/12/25 05:48:38;;;;;;;4.22;1.45;;;;;;;;;;5050339;28;43983;-83
2021/12/25 05:51:05;;;;;;;5.20;1.83;;;;;;;;;;5051501;28;43873;-83
2021/12/25 05:53:32;;;;;;;4.32;1.73;;;;;;;;;;5051877;28;42620;-84
2021/12/25 05:55:59;;;;;;;2.65;1.48;;;;;;;;;;5050822;28;44954;-83
2021/12/25 05:58:26;;;;;;;2.25;1.48;;;;;;;;;;5051371;28;43753;-84
2021/12/25 06:00:53;;;;;;;3.28;1.73;;;;;;;;;;5051353;28;42706;-83
2021/12/25 06:03:20;;;;;;;3.13;2.10;;;;;;;;;;5049866;28;42787;-84
2021/12/25 06:05:47;;;;;;;1.40;1.30;;;;;;;;;;5051609;28;44664;-84
2021/12/25 06:08:14;;;;;;;5.55;1.73;;;;;;;;;;5049520;28;44947;-83
2021/12/25 06:10:41;;;;;;;1.88;1.40;;;;;;;;;;5050845;28;42290;-83
2021/12/25 06:13:11;;;;;;;4.22;1.48;;;;;;;;;;5050538;28;41717;-84
2021/12/25 06:15:38;;;;;;;2.22;1.20;;;;;;;;;;5050255;28;43931;-83
2021/12/25 06:18:04;;;;;;;3.05;1.38;;;;;;;;;;5050664;28;44882;-83
2021/12/25 06:20:31;;;;;;;3.53;1.33;;;;;;;;;;5051076;28;45139;-83
2021/12/25 06:22:57;;;;;;;3.88;1.58;;;;;;;;;;5042505;28;42448;-84
2021/12/25 06:25:24;;;;;;;1.98;1.52;;;;;;;;;;5031452;28;43656;-84
2021/12/25 06:27:51;;;;;;;1.50;1.20;;;;;;;;;;5030806;28;44963;-83
2021/12/25 06:30:18;;;;;;;3.00;1.52;;;;;;;;;;5042445;28;42852;-84
2021/12/25 06:32:44;;;;;;;2.40;1.50;;;;;;;;;;5054096;28;44049;-84
2021/12/25 06:35:12;;;;;;;3.28;1.67;;;;;;;;;;5039200;28;44284;-83
2021/12/25 06:37:41;;;;;;;5.13;1.77;;;;;;;;;;5030366;28;44302;-83
2021/12/25 06:40:10;;;;;;;3.15;1.40;;;;;;;;;;5031505;28;44598;-83
2021/12/25 06:42:37;;;;;;;2.38;1.40;;;;;;;;;;5033989;28;44023;-83
2021/12/25 06:45:05;;;;;;;4.43;1.40;;;;;;;;;;5049775;28;42448;-83
2021/12/25 06:47:31;;;;;;;4.00;1.30;;;;;;;;;;5050582;28;42891;-83
2021/12/25 06:49:58;;;;;;;3.42;1.30;;;;;;;;;;5050538;28;43891;-84
2021/12/25 06:52:25;;;;;;;3.08;1.40;;;;;;;;;;5049309;28;42439;-84
2021/12/25 06:54:51;;;;;;;2.65;1.30;;;;;;;;;;5050261;28;44969;-83
2021/12/25 06:57:18;;;;;;;3.72;1.67;;;;;;;;;;5049557;28;43793;-83
2021/12/25 06:59:45;;;;;;;4.10;1.30;;;;;;;;;;5049870;28;45682;-83
2021/12/25 07:02:12;;;;;;;1.17;1.08;;;;;;;;;;5050066;28;44150;-83
2021/12/25 07:04:39;;;;;;;3.03;1.40;;;;;;;;;;5049801;28;43630;-83
2021/12/25 07:07:06;;;;;;;1.73;1.10;;;;;;;;;;5050079;28;44197;-83
2021/12/25 07:09:33;;;;;;;1.60;1.33;;;;;;;;;;5050669;28;44839;-83
2021/12/25 07:11:59;;;;;;;2.50;1.30;;;;;;;;;;5048931;28;45010;-82
2021/12/25 07:14:26;;;;;;;4.65;1.45;;;;;;;;;;5050501;28;44922;-83
2021/12/25 07:16:52;;;;;;;2.88;1.55;;;;;;;;;;5049796;28;42972;-82
2021/12/25 07:19:19;;;;;;;3.55;1.48;;;;;;;;;;5049323;28;42638;-83
2021/12/25 07:21:46;;;;;;;2.40;1.45;;;;;;;;;;5049064;28;45932;-82
2021/12/25 07:24:14;;;;;;;5.80;1.42;;;;;;;;;;5032842;28;35882;-83
2021/12/25 07:26:41;;;;;;;;;;;;;;;;;;5030553;28;43706;-82
2021/12/25 07:29:08;;;;;;;1.58;1.10;;;;;;;;;;5030284;28;41847;-82
2021/12/25 07:31:34;;;;;;;4.30;1.70;;;;;;;;;;5029907;28;42586;-82
2021/12/25 07:34:02;;;;;;;3.72;1.80;;;;;;;;;;5029444;28;45030;-82
2021/12/25 07:36:29;;;;;;;3.75;1.40;;;;;;;;;;5029733;28;43914;-82
2021/12/25 07:38:56;;;;;;;2.58;1.30;;;;;;;;;;5029866;28;43576;-82
2021/12/25 07:41:23;;;;;;;2.22;1.20;;;;;;;;;;5028929;28;43434;-82
2021/12/25 07:43:50;;;;;;;2.47;1.38;;;;;;;;;;5044232;28;44781;-81
2021/12/25 07:46:16;;;;;;;3.75;1.27;;;;;;;;;;5049227;28;44821;-81
2021/12/25 07:48:44;;;;;;;1.75;1.27;;;;;;;;;;5049200;28;44917;-81
2021/12/25 07:51:10;;;;;;;2.58;1.77;;;;;;;;;;5049679;28;42891;-82
2021/12/25 07:53:37;;;;;;;2.33;1.52;;;;;;;;;;5049881;28;42919;-81
2021/12/25 07:56:04;;;;;;;2.80;1.65;;;;;;;;;;5049085;28;45242;-82
2021/12/25 07:58:30;;;;;;;1.75;1.30;;;;;;;;;;5044961;28;44865;-81
2021/12/25 08:00:57;;;;;;;5.47;2.10;;;;;;;;;;5048661;28;42287;-81
2021/12/25 08:03:24;;;;;;;3.47;1.58;;;;;;;;;;5048772;28;45115;-81
2021/12/25 08:05:51;;;;;;;5.43;2.28;;;;;;;;;;5049685;28;44702;-82
2021/12/25 08:08:18;;;;;;;4.90;1.90;;;;;;;;;;5046575;28;43962;-81
2021/12/25 08:10:44;;;;;;;2.88;1.60;;;;;;;;;;5046488;28;42500;-82
2021/12/25 08:13:13;;;;;;;3.15;1.70;;;;;;;;;;5046402;28;44099;-82
2021/12/25 08:15:41;;;;;;;3.58;2.20;;;;;;;;;;5048466;28;42912;-81
2021/12/25 08:18:08;;;;;;;3.88;1.60;;;;;;;;;;5048533;28;44641;-81
2021/12/25 08:20:35;;;;;;;3.13;2.33;;;;;;;;;;5049278;28;44956;-85
2021/12/25 08:23:02;;;;;;;3.38;1.92;;;;;;;;;;5048243;28;46281;-82
2021/12/25 08:25:33;;;;;;;6.53;1.73;;;;;;;;;;5049365;28;43627;-81
2021/12/25 08:28:00;;;;;;;2.65;1.95;;;;;;;;;;5047952;28;45044;-81
2021/12/25 08:30:27;;;;;;;2.10;1.80;;;;;;;;;;5048712;28;44883;-81
2021/12/25 08:32:59;;;;;;;1.70;1.40;;;;;;;;;;5048914;28;42911;-81
2021/12/25 08:35:27;;;;;;;3.92;2.10;;;;;;;;;;5048525;28;43941;-80
2021/12/25 08:37:54;;;;;;;3.67;1.83;;;;;;;;;;5048406;28;45648;-80
2021/12/25 08:40:23;;;;;;;3.70;2.10;;;;;;;;;;5048999;28;43347;-86
2021/12/25 08:42:54;;;;;;;1.58;1.48;;;;;;;;;;5043071;28;42930;-81
2021/12/25 08:45:44;;;;;;;3.63;2.33;;;;;;;;;;5031479;28;44745;-81
2021/12/25 08:48:13;;;;;;;2.67;1.33;;;;;;;;;;5031774;28;45321;-81
2021/12/25 08:50:43;;;;;;;4.55;1.40;;;;;;;;;;5032224;28;41576;-81
2021/12/25 08:53:09;;;;;;;2.58;1.70;;;;;;;;;;5044671;28;44930;-81
2021/12/25 08:55:36;;;;;;;2.15;1.27;;;;;;;;;;5050904;28;44883;-81
2021/12/25 08:58:03;;;;;;;2.15;1.45;;;;;;;;;;5049632;28;43656;-81
2021/12/25 09:00:30;;;;;;;3.40;1.30;;;;;;;;;;5050630;28;44896;-82
2021/12/25 09:02:57;;;;;;;1.65;1.55;;;;;;;;;;5050045;28;45251;-81
2021/12/25 09:05:23;;;;;;;1.30;0.98;;;;;;;;;;5050217;28;43457;-81
2021/12/25 09:07:50;;;;;;;1.15;1.00;;;;;;;;;;5047695;28;40061;-82
2021/12/25 09:10:18;;;;;;;1.55;1.08;;;;;;;;;;5050654;28;44967;-81
2021/12/25 09:12:45;;;;;;;1.27;0.80;;;;;;;;;;5049669;28;43488;-81
2021/12/25 09:15:12;;;;;;;1.00;0.80;;;;;;;;;;5048196;28;44956;-81
2021/12/25 09:17:39;;;;;;;1.33;1.00;;;;;;;;;;5049343;28;44717;-80
2021/12/25 09:20:06;;;;;;;2.53;1.20;;;;;;;;;;5049794;28;44986;-81
2021/12/25 09:22:33;;;;;;;1.75;1.00;;;;;;;;;;5049272;28;43913;-81
2021/12/25 09:25:00;;;;;;;2.10;0.88;;;;;;;;;;5051577;28;44666;-81
2021/12/25 09:27:27;;;;;;;1.52;0.77;;;;;;;;;;5050718;28;43532;-82
2021/12/25 09:29:54;;;;;;;1.02;0.85;;;;;;;;;;5052035;28;44986;-86
2021/12/25 09:32:20;;;;;;;0.63;0.60;;;;;;;;;;5050870;28;42764;-83
2021/12/25 09:34:47;;;;;;;1.02;0.65;;;;;;;;;;5051661;28;42992;-85
2021/12/25 09:37:15;;;;;;;1.50;0.80;;;;;;;;;;5050767;28;42641;-83
2021/12/25 09:39:41;;;;;;;1.23;0.60;;;;;;;;;;5051212;28;43632;-83
2021/12/25 09:42:09;;;;;;;1.95;0.70;;;;;;;;;;5050500;28;45301;-83
2021/12/25 09:44:37;;;;;;;1.08;0.55;;;;;;;;;;5031848;28;44684;-87
2021/12/25 09:47:04;;;;;;;1.35;0.70;;;;;;;;;;5030777;28;42990;-88
2021/12/25 09:49:31;;;;;;;1.08;0.68;;;;;;;;;;5030580;28;43891;-83
2021/12/25 09:52:00;;;;;;;0.60;0.60;;;;;;;;;;5032538;28;20108;-85
2021/12/25 09:54:28;;;;;;;2.35;0.70;;;;;;;;;;5039416;28;42997;-85
2021/12/25 09:56:58;;;;;;;1.77;0.67;;;;;;;;;;5028476;28;41108;-85
2021/12/25 09:59:25;;;;;;;1.02;0.60;;;;;;;;;;5041008;28;44313;-85
2021/12/25 10:01:54;;;;;;;1.48;0.80;;;;;;;;;;5037444;28;44831;-86
2021/12/25 10:04:31;;;;;;;0.60;0.40;;;;;;;;;;5038418;28;44587;-85
2021/12/25 10:07:05;;;;;;;2.45;0.80;;;;;;;;;;5037272;28;42328;-86
2021/12/25 10:09:32;;;;;;;1.70;0.68;;;;;;;;;;5038053;28;44688;-86
2021/12/25 10:12:01;;;;;;;1.98;0.68;;;;;;;;;;5037301;28;42861;-86
2021/12/25 10:14:34;;;;;;;0.75;0.63;;;;;;;;;;5036418;28;44860;-85
2021/12/25 10:17:14;;;;;;;0.65;0.57;;;;;;;;;;5037906;28;42166;-86
2021/12/25 10:19:42;;;;;;;1.40;1.10;;;;;;;;;;5040617;28;20056;-85
2021/12/25 10:22:11;;;;;;;2.10;0.60;;;;;;;;;;5036502;28;45032;-87
2021/12/25 10:24:49;;;;;;;0.63;0.52;;;;;;;;;;5049156;28;43996;-85
2021/12/25 10:27:20;;;;;;;2.42;0.70;;;;;;;;;;5044640;28;43940;-85
2021/12/25 10:29:47;;;;;;;1.83;0.60;;;;;;;;;;5037346;28;44280;-85
2021/12/25 10:32:17;;;;;;;3.15;1.27;;;;;;;;;;5039194;28;43617;-85
2021/12/25 10:34:44;;;;;;;7.22;2.17;;;;;;;;;;5038252;28;42944;-85
2021/12/25 10:37:12;;;;;;;13.07;4.43;;;;;;;;;;5035736;28;42938;-85
2021/12/25 10:39:39;;;;;;;21.10;6.13;;;;;;;;;;5037642;28;43647;-85
2021/12/25 10:42:11;;;;;;;31.20;9.38;;;;;;;;;;5037566;28;42396;-85
2021/12/25 10:44:39;;;;;;;27.67;6.30;;;;;;;;;;5036380;28;44724;-85
2021/12/25 10:47:08;;;;;;;26.30;7.80;;;;;;;;;;5045958;28;42927;-85
2021/12/25 10:49:38;;;;;;;15.55;5.20;;;;;;;;;;5047982;28;43495;-85
2021/12/25 10:52:24;;;;;;;15.48;6.65;;;;;;;;;;5030821;28;45116;-85
2021/12/25 10:54:52;;;;;;;4.72;2.17;;;;;;;;;;5029083;28;45010;-86
2021/12/25 10:57:36;;;;;;;2.58;2.00;;;;;;;;;;5027381;28;43279;-84
2021/12/25 11:00:13;;;;;;;3.28;1.30;;;;;;;;;;5029197;28;44663;-85
2021/12/25 11:02:42;;;;;;;5.88;1.80;;;;;;;;;;5032662;28;43441;-85
2021/12/25 11:05:08;;;;;;;;;;;;;;;;;;5036994;28;43011;-85
2021/12/25 11:07:35;;;;;;;3.35;1.58;;;;;;;;;;5036139;28;43077;-85
2021/12/25 11:10:04;;;;;;;1.55;1.20;;;;;;;;;;5037220;28;42887;-85
2021/12/25 11:12:31;;;;;;;1.80;0.88;;;;;;;;;;5037446;28;43670;-85
2021/12/25 11:15:09;;;;;;;1.42;1.00;;;;;;;;;;5040035;28;44951;-85
2021/12/25 11:17:38;;;;;;;2.40;1.70;;;;;;;;;;5038925;28;45234;-84
2021/12/25 11:20:05;;;;;;;0.70;0.70;;;;;;;;;;5039660;28;42623;-86
2021/12/25 11:22:49;;;;;;;2.28;0.90;;;;;;;;;;5039200;28;42907;-85
2021/12/25 11:25:17;;;;;;;1.55;0.70;;;;;;;;;;5039360;28;43897;-85
2021/12/25 11:27:43;;;;;;;0.73;0.50;;;;;;;;;;5038986;28;44963;-86
2021/12/25 11:30:10;;;;;;;1.10;0.77;;;;;;;;;;5039689;28;44914;-85
2021/12/25 11:32:37;;;;;;;2.03;0.75;;;;;;;;;;5038678;28;44511;-85
2021/12/25 11:35:05;;;;;;;1.75;0.93;;;;;;;;;;5040529;28;43456;-88
2021/12/25 11:37:32;;;;;;;1.48;0.85;;;;;;;;;;5038558;28;44911;-89
2021/12/25 11:39:59;;;;;;;0.85;0.70;;;;;;;;;;5039885;28;41555;-85
2021/12/25 11:42:27;;;;;;;0.73;0.70;;;;;;;;;;5039374;28;44178;-86
2021/12/25 11:44:55;;;;;;;;;;;;;;;;;;5045053;28;42899;-86
2021/12/25 11:47:30;;;;;;;1.60;0.80;;;;;;;;;;5037858;28;44818;-86
2021/12/25 11:49:58;;;;;;;1.02;0.60;;;;;;;;;;5036127;28;43026;-86
2021/12/25 11:52:30;;;;;;;1.02;0.68;;;;;;;;;;5037078;28;23256;-85
2021/12/25 11:55:23;;;;;;;0.80;0.60;;;;;;;;;;5035911;28;44867;-87
2021/12/25 11:58:15;;;;;;;1.05;0.63;;;;;;;;;;5035939;28;42268;-86
2021/12/25 12:00:48;;;;;;;1.15;0.65;;;;;;;;;;5038069;28;45078;-86
2021/12/25 12:03:33;;;;;;;1.48;0.73;;;;;;;;;;5039362;28;43198;-86
2021/12/25 12:06:00;;;;;;;0.68;0.40;;;;;;;;;;5040862;28;44701;-86
2021/12/25 12:08:30;;;;;;;0.40;0.40;;;;;;;;;;5039568;28;46303;-88
2021/12/25 12:10:59;;;;;;;1.17;0.90;;;;;;;;;;5040883;28;43836;-86
2021/12/25 12:13:27;;;;;;;1.15;0.60;;;;;;;;;;5040143;28;42650;-85
2021/12/25 12:15:56;;;;;;;2.42;0.60;;;;;;;;;;5040344;28;43085;-85
2021/12/25 12:18:31;;;;;;;3.97;1.25;;;;;;;;;;5039954;28;44952;-85
2021/12/25 12:21:11;;;;;;;1.65;0.65;;;;;;;;;;5044299;28;43444;-85
2021/12/25 12:26:48;;;;;;;0.87;0.80;;;;;;;;;;5044962;28;45327;-86
2021/12/25 12:29:35;;;;;;;2.30;0.52;;;;;;;;;;5045040;28;42593;-86
2021/12/25 12:32:02;;;;;;;2.15;1.00;;;;;;;;;;5049611;28;42881;-86
2021/12/25 12:34:29;;;;;;;1.80;0.70;;;;;;;;;;5048943;28;44708;-86
2021/12/25 12:37:24;;;;;;;3.05;1.00;;;;;;;;;;5050852;28;43173;-86
2021/12/25 12:39:54;;;;;;;0.65;0.65;;;;;;;;;;5049437;28;44017;-86
2021/12/25 12:42:22;;;;;;;0.85;0.52;;;;;;;;;;5048932;28;42943;-86
2021/12/25 12:45:07;;;;;;;2.03;0.70;;;;;;;;;;5050850;28;43973;-86
2021/12/25 12:47:34;;;;;;;2.35;0.60;;;;;;;;;;5030781;28;44888;-86
2021/12/25 12:50:01;;;;;;;1.90;0.95;;;;;;;;;;5029500;28;43574;-86
2021/12/25 12:52:36;;;;;;;2.90;0.75;;;;;;;;;;5038846;28;42960;-87
2021/12/25 12:55:05;;;;;;;2.85;0.80;;;;;;;;;;5040004;28;45274;-86
2021/12/25 12:57:34;;;;;;;2.88;0.90;;;;;;;;;;5037531;28;43872;-86
2021/12/25 13:00:22;;;;;;;3.17;0.70;;;;;;;;;;5040513;28;44001;-86
2021/12/25 13:02:50;;;;;;;2.13;0.68;;;;;;;;;;5039652;28;43633;-87
2021/12/25 13:05:18;;;;;;;1.92;0.60;;;;;;;;;;5040477;28;43223;-87
2021/12/25 13:07:47;;;;;;;0.88;0.82;;;;;;;;;;5039874;28;44987;-88
2021/12/25 13:10:36;;;;;;;4.88;1.15;;;;;;;;;;5043999;28;43943;-86
2021/12/25 13:13:07;;;;;;;1.27;0.70;;;;;;;;;;5040652;28;43871;-86
2021/12/25 13:15:34;;;;;;;3.70;0.70;;;;;;;;;;5043311;28;44943;-86
2021/12/25 13:18:04;;;;;;;0.90;0.70;;;;;;;;;;5040701;28;43970;-86
2021/12/25 13:20:35;;;;;;;1.30;0.80;;;;;;;;;;5041505;28;42938;-87
2021/12/25 13:23:05;;;;;;;2.45;0.85;;;;;;;;;;5043580;28;20056;-88
2021/12/25 13:25:32;;;;;;;2.90;0.88;;;;;;;;;;5042315;28;43875;-91
2021/12/25 13:28:00;;;;;;;2.20;1.27;;;;;;;;;;5043102;28;37469;-84
2021/12/25 13:30:27;;;;;;;1.17;1.00;;;;;;;;;;5044443;28;44533;-86
2021/12/25 13:32:54;;;;;;;1.52;0.80;;;;;;;;;;5042711;28;21581;-89
2021/12/25 13:35:22;;;;;;;1.77;1.10;;;;;;;;;;5041346;28;42859;-85
2021/12/25 13:37:55;;;;;;;1.92;0.88;;;;;;;;;;5040938;28;44640;-87
2021/12/25 13:40:23;;;;;;;1.35;0.70;;;;;;;;;;5046842;28;45079;-86
2021/12/25 13:42:49;;;;;;;1.30;0.73;;;;;;;;;;5049771;28;20136;-83
2021/12/25 13:45:18;;;;;;;1.95;1.25;;;;;;;;;;5050408;28;45060;-84
2021/12/25 13:47:45;;;;;;;1.83;0.77;;;;;;;;;;5049566;28;42049;-82
2021/12/25 13:50:12;;;;;;;3.58;1.00;;;;;;;;;;5051865;28;20053;-82
2021/12/25 13:52:40;;;;;;;0.90;0.60;;;;;;;;;;5048890;28;45242;-82
2021/12/25 13:55:18;;;;;;;2.38;0.70;;;;;;;;;;5051106;28;37481;-81
2021/12/25 13:57:46;;;;;;;1.90;1.00;;;;;;;;;;5049684;28;44641;-82
2021/12/25 14:00:17;;;;;;;0.73;0.68;;;;;;;;;;5051047;28;45311;-83
2021/12/25 14:02:46;;;;;;;2.97;0.70;;;;;;;;;;5049368;28;45084;-85
2021/12/25 14:05:14;;;;;;;1.10;0.80;;;;;;;;;;5051332;28;44983;-82
2021/12/25 14:07:41;;;;;;;1.13;0.70;;;;;;;;;;5049182;28;43138;-84
2021/12/25 14:10:08;;;;;;;2.22;0.95;;;;;;;;;;5049251;28;43786;-82
2021/12/25 14:12:36;;;;;;;3.95;0.85;;;;;;;;;;5040984;28;45015;-83
2021/12/25 14:15:03;;;;;;;1.40;0.90;;;;;;;;;;5041642;28;42944;-83
2021/12/25 14:17:31;;;;;;;2.03;1.33;;;;;;;;;;5039756;28;44708;-84
2021/12/25 14:20:08;;;;;;;3.50;0.90;;;;;;;;;;5040146;28;42968;-82
2021/12/25 14:22:35;;;;;;;5.10;1.65;;;;;;;;;;5034336;28;43678;-82
2021/12/25 14:25:04;;;;;;;1.55;1.02;;;;;;;;;;5041999;28;45570;-82
2021/12/25 14:27:31;;;;;;;1.25;0.90;;;;;;;;;;5039349;28;45276;-82
2021/12/25 14:30:24;;;;;;;2.75;1.10;;;;;;;;;;5038353;28;45655;-82
2021/12/25 14:32:50;;;;;;;1.30;0.95;;;;;;;;;;5037043;28;43551;-82
2021/12/25 14:35:19;;;;;;;1.40;1.02;;;;;;;;;;5039604;28;43499;-82
2021/12/25 14:37:47;;;;;;;1.45;1.30;;;;;;;;;;5039923;28;43596;-82
2021/12/25 14:40:16;;;;;;;2.67;1.10;;;;;;;;;;5039791;28;43504;-82
2021/12/25 14:42:44;;;;;;;1.50;1.15;;;;;;;;;;5038919;28;43950;-82
2021/12/25 14:45:12;;;;;;;1.10;0.80;;;;;;;;;;5040661;28;45159;-82
2021/12/25 14:48:08;;;;;;;2.00;0.80;;;;;;;;;;5040550;28;44829;-82
2021/12/25 14:50:35;;;;;;;1.65;1.02;;;;;;;;;;5024400;28;43835;-83
2021/12/25 14:53:13;;;;;;;6.45;1.17;;;;;;;;;;5036484;28;45941;-82
2021/12/25 14:55:42;;;;;;;1.10;0.90;;;;;;;;;;5038738;28;42976;-83
2021/12/25 14:58:11;;;;;;;1.05;0.80;;;;;;;;;;5037610;28;44677;-82
2021/12/25 15:00:37;;;;;;;1.35;0.80;;;;;;;;;;5037340;28;42717;-82
2021/12/25 15:03:21;;;;;;;6.65;1.20;;;;;;;;;;5035896;28;42900;-82
2021/12/25 15:05:52;;;;;;;3.63;1.05;;;;;;;;;;5037843;28;43160;-82
2021/12/25 15:08:24;;;;;;;2.55;1.30;;;;;;;;;;5037440;28;43140;-82
2021/12/25 15:10:52;;;;;;;1.55;0.85;;;;;;;;;;5036101;28;42587;-82
2021/12/25 15:13:20;;;;;;;1.57;1.07;;;;;;;;;;5036456;28;44961;-81
2021/12/25 15:15:51;;;;;;;4.03;1.23;;;;;;;;;;5038018;28;43924;-82
2021/12/25 15:18:22;;;;;;;1.30;0.82;;;;;;;;;;5035002;28;43645;-82
2021/12/25 15:21:01;;;;;;;1.40;1.30;;;;;;;;;;5036498;28;44943;-82
2021/12/25 15:23:27;;;;;;;2.75;1.15;;;;;;;;;;5036621;28;45189;-82
2021/12/25 15:26:14;;;;;;;1.88;1.20;;;;;;;;;;5036002;28;44700;-82
2021/12/25 15:28:42;;;;;;;1.10;1.00;;;;;;;;;;5036761;28;43885;-82
2021/12/25 15:31:23;;;;;;;2.75;1.10;;;;;;;;;;5036305;28;44837;-82
2021/12/25 15:33:52;;;;;;;2.80;1.20;;;;;;;;;;5037228;28;43040;-82
2021/12/25 15:36:19;;;;;;;4.03;1.42;;;;;;;;;;5036873;28;42233;-81
2021/12/25 15:38:46;;;;;;;1.98;1.23;;;;;;;;;;5035685;28;44800;-82
2021/12/25 15:41:14;;;;;;;1.35;1.02;;;;;;;;;;5035277;28;43502;-82
2021/12/25 15:43:42;;;;;;;3.00;1.03;;;;;;;;;;5036570;28;43502;-82
2021/12/25 15:46:09;;;;;;;4.78;1.40;;;;;;;;;;5035119;28;44644;-82
2021/12/25 15:48:36;;;;;;;3.83;1.77;;;;;;;;;;5036672;28;44950;-82
2021/12/25 15:51:04;;;;;;;8.43;3.28;;;;;;;;;;5036250;28;42284;-81
2021/12/25 15:53:31;;;;;;;10.18;4.68;;;;;;;;;;5035335;28;44821;-81
2021/12/25 15:55:58;;;;;;;5.28;3.03;;;;;;;;;;5036880;28;42903;-82
2021/12/25 15:58:24;;;;;;;2.42;1.63;;;;;;;;;;5035857;28;42590;-81
2021/12/25 16:00:51;;;;;;;6.97;3.40;;;;;;;;;;5035355;28;43953;-81
2021/12/25 16:03:18;;;;;;;35.28;18.55;;;;;;;;;;5035812;28;45389;-81
2021/12/25 16:05:45;;;;;;;40.70;7.68;;;;;;;;;;5035929;28;43602;-81
2021/12/25 16:08:12;;;;;;;2.88;1.55;;;;;;;;;;5035464;28;43906;-81